Página principal
METAR-TAF:

METAR-TAF

Aeroportos :

Teerã, Irão

Aeroporto Internacional de Mehrabad

latitude: 35-41N, longitude: 051-21E, altura: 1204 m

Observação actual do tempo

O boletim foi feito há 24 minutos, às 23:00 UTC
Vento 4 kt de oes-noroeste
Temperatura 4°C
Humidade 44%
Pressão 1024 hPa
Visibilidade 10 km ou mais
sem nuvens abaixo de 1500 metros e sem cumulonimbus

METAR: OIII 122300Z 30004KT CAVOK 04/M07 Q1024 A3025 NOSIG

Hora: 02:54 (23:24 UTC)

Previsão

O boletim foi feito há 5 horas e 54 minutos, às 17:30 UTC
Previsão válida de 12 às 18 UTC a 13 às 24 UTC
Vento 6 kt de oes-noroeste
Visibilidade: 8000 m

TAF: OIII 121730Z 1218/1324 30003MPS 8000 NSC

Observações e previsões do tempo de mais de 4000 aeroportos (mensagens METAR e TAF).

As estações disponíveis são os pontos amarelos e vermelhos sobre o mapa.

Mova o rato sobre o mapa para ver o nome da estação.

Depois clique no ponto para visualizar as observações e previsões meteorológicas.

Para alterar o mapa : clique nos botões verdes com uma cruz preta para aumentar o zoom; no botão verde com uma pitada de zoom; ou nas setas verdes para mapas adjacentes.


METAR-TAF: